Time;durP1;ratioP1;P1;durP2;ratioP2;P2;SDS_P1;SDS_P2;PMS_P1;PMS_P2;Temp;Humidity;BMP_temperature;BMP_pressure;BME280_temperature;BME280_humidity;BME280_pressure;Samples;Min_cycle;Max_cycle;Signal;HPM_P1;HPM_P2
2022/01/11 00:00:25;758975.00;2.53;1309.67;90519.00;0.30;157.20;;;;;7.50;1.00;;;;;;2244375;61;1330;-90
2022/01/11 01:22:28;178914.00;0.60;309.62;0.00;0.00;0.62;;;;;7.10;1.00;;;;;;2259939;61;1027;-87
2022/01/11 01:25:39;551722.00;1.84;950.93;0.00;0.00;0.62;;;;;6.90;1.00;;;;;;2259931;61;1140;-89
2022/01/11 01:28:54;;;;;;;;;;;;;;;;;;;;;
2022/01/11 03:08:46;;;;;;;;;;;;;;;;;;;;;
2022/01/11 03:24:17;440321.00;1.47;759.14;19460.00;0.06;34.33;;;;;6.20;1.00;;;;;;2224830;62;1502;-86
2022/01/11 03:27:15;345807.00;1.15;596.65;32815.00;0.11;57.46;;;;;6.30;1.00;;;;;;2224815;62;1089;-87
2022/01/11 05:57:26;346331.00;1.15;597.56;0.00;0.00;0.62;;;;;6.10;1.00;;;;;;2175243;63;1057;-87
2022/01/11 06:00:05;186410.00;0.62;322.53;0.00;0.00;0.62;;;;;6.20;1.00;;;;;;2178650;63;1303;-86
2022/01/11 06:02:36;492076.00;1.64;848.18;26919.00;0.09;47.25;;;;;6.30;1.00;;;;;;2178697;63;1034;-87
2022/01/11 06:05:05;409561.00;1.37;706.24;0.00;0.00;0.62;;;;;6.60;1.00;;;;;;2177681;63;1031;-88
2022/01/11 06:07:42;255374.00;0.85;441.19;10187.00;0.03;18.27;;;;;6.90;1.00;;;;;;2178687;63;964;-87
2022/01/11 06:10:10;208559.00;0.70;360.66;0.00;0.00;0.62;;;;;6.50;1.00;;;;;;2178684;63;1929;-86
2022/01/11 06:12:53;647805.00;2.16;1116.84;102682.00;0.34;178.20;;;;;6.20;1.00;;;;;;2181842;63;1020;-87
2022/01/11 06:15:23;596149.00;1.99;1027.57;99134.00;0.33;172.08;;;;;5.80;1.00;;;;;;2185709;63;1703;-86
2022/01/11 06:17:53;590805.00;1.97;1018.35;93181.00;0.31;161.80;;;;;5.70;1.00;;;;;;2189541;63;1012;-86
2022/01/11 06:20:26;542240.00;1.81;934.58;101894.00;0.34;176.84;;;;;6.10;1.00;;;;;;2189904;63;1293;-87
2022/01/11 06:22:56;918272.00;3.06;1588.23;214748.00;0.72;371.31;;;;;6.20;1.00;;;;;;2195150;63;1021;-85
2022/01/11 06:25:31;1128068.00;3.76;1960.69;103176.00;0.34;179.05;;;;;5.70;1.00;;;;;;2201205;63;972;-88
2022/01/11 06:28:04;767700.00;2.56;1324.85;43888.00;0.15;76.61;;;;;5.70;1.00;;;;;;2203698;62;1050;-86
2022/01/11 06:30:33;559153.00;1.86;963.74;19085.00;0.06;33.69;;;;;5.70;1.00;;;;;;2205156;62;2006;-86
2022/01/11 06:33:08;1036121.00;3.45;1796.55;111189.00;0.37;192.88;;;;;5.50;1.00;;;;;;2212749;62;1205;-86
2022/01/11 06:35:36;426332.00;1.42;735.08;0.00;0.00;0.62;;;;;5.40;1.00;;;;;;2208779;62;858;-86
2022/01/11 06:38:28;632298.00;2.11;1090.02;70240.00;0.23;122.18;;;;;5.40;1.00;;;;;;2210078;62;1070;-86
2022/01/11 06:40:55;465605.00;1.55;802.63;0.00;0.00;0.62;;;;;5.70;1.00;;;;;;2210727;62;1508;-85
2022/01/11 06:43:33;478122.00;1.59;824.17;0.00;0.00;0.62;;;;;5.80;1.00;;;;;;2212406;62;1074;-87
2022/01/11 06:46:11;430975.00;1.44;743.06;0.00;0.00;0.62;;;;;5.80;1.00;;;;;;2216578;62;977;-86
2022/01/11 06:48:41;193555.00;0.65;334.83;38117.00;0.13;66.63;;;;;5.60;1.00;;;;;;2216487;62;1633;-85
2022/01/11 06:51:16;235470.00;0.78;406.96;0.00;0.00;0.62;;;;;5.70;1.00;;;;;;2216523;62;1915;-85
2022/01/11 06:53:43;205169.00;0.68;354.82;0.00;0.00;0.62;;;;;5.80;1.00;;;;;;2212912;62;969;-85
2022/01/11 06:56:14;266735.00;0.89;460.73;0.00;0.00;0.62;;;;;5.90;1.00;;;;;;2215884;62;1016;-85
2022/01/11 06:58:42;401528.00;1.34;692.43;27093.00;0.09;47.55;;;;;5.70;1.00;;;;;;2216445;62;1135;-86
2022/01/11 07:01:12;180407.00;0.60;312.19;23254.00;0.08;40.90;;;;;5.40;1.00;;;;;;2216445;62;1040;-86
2022/01/11 07:03:42;242660.00;0.81;419.33;0.00;0.00;0.62;;;;;5.10;1.00;;;;;;2216578;62;1037;-85
2022/01/11 07:06:11;313442.00;1.04;541.03;0.00;0.00;0.62;;;;;4.90;1.00;;;;;;2216521;62;1011;-86
2022/01/11 07:08:50;436843.00;1.46;753.15;0.00;0.00;0.62;;;;;4.80;1.40;;;;;;2216182;62;1058;-86
2022/01/11 07:11:21;74538.00;0.25;129.60;0.00;0.00;0.62;;;;;4.90;2.00;;;;;;2218612;62;1994;-86
2022/01/11 07:13:50;394513.00;1.32;680.37;15407.00;0.05;27.32;;;;;5.20;1.60;;;;;;2223930;62;1015;-86
2022/01/11 07:16:26;275042.00;0.92;475.01;0.00;0.00;0.62;;;;;5.40;1.00;;;;;;2224875;62;1030;-85
2022/01/11 07:19:00;410315.00;1.37;707.54;0.00;0.00;0.62;;;;;5.50;1.00;;;;;;2217957;62;1419;-86
2022/01/11 07:21:29;437802.00;1.46;754.80;46902.00;0.16;81.83;;;;;5.60;1.00;;;;;;2220900;62;1634;-85
2022/01/11 07:24:04;439502.00;1.47;757.73;54102.00;0.18;94.28;;;;;5.20;1.00;;;;;;2217775;62;1079;-86
2022/01/11 07:26:41;519312.00;1.73;895.08;97273.00;0.32;168.86;;;;;5.10;1.70;;;;;;2220960;62;1087;-86
2022/01/11 07:29:10;755432.00;2.52;1303.50;102624.00;0.34;178.10;;;;;5.30;1.00;;;;;;2217082;62;1425;-85
2022/01/11 07:31:51;672428.00;2.24;1159.46;90938.00;0.30;157.93;;;;;5.30;1.00;;;;;;2216560;62;2046;-86
2022/01/11 07:34:40;651617.00;2.17;1123.43;0.00;0.00;0.62;;;;;4.90;1.50;;;;;;2213204;62;956;-86
2022/01/11 07:37:10;340428.00;1.13;587.41;0.00;0.00;0.62;;;;;4.70;3.40;;;;;;2213196;62;1188;-86
2022/01/11 07:39:53;268136.00;0.89;463.14;0.00;0.00;0.62;;;;;5.20;1.90;;;;;;2215853;62;1427;-87
2022/01/11 07:42:35;;;;;;;;;;;;;;;;;;;;;
2022/01/11 07:45:11;615128.00;2.05;1060.35;757.00;0.00;1.93;;;;;5.30;1.40;;;;;;2209278;62;1769;-86
2022/01/11 07:47:39;566989.00;1.89;977.25;0.00;0.00;0.62;;;;;5.40;1.00;;;;;;2208289;62;1194;-85
2022/01/11 07:50:32;259120.00;0.86;447.64;0.00;0.00;0.62;;;;;5.30;1.10;;;;;;2216960;62;1924;-86
2022/01/11 07:53:05;312019.00;1.04;538.58;0.00;0.00;0.62;;;;;5.60;1.00;;;;;;2223619;62;1389;-86
2022/01/11 07:55:46;;;;;;;;;;;;;;;;;;;;;
2022/01/11 07:58:21;573340.00;1.91;988.21;19090.00;0.06;33.69;;;;;5.60;1.00;;;;;;2216760;62;1131;-89
2022/01/11 08:01:11;606032.00;2.02;1044.64;86309.00;0.29;149.93;;;;;5.50;1.00;;;;;;2215589;62;1432;-86
2022/01/11 08:04:33;;;;;;;;;;;;;;;;;;;;;
2022/01/11 09:25:33;594588.00;1.98;1024.88;0.00;0.00;0.62;;;;;5.50;1.00;;;;;;2185187;63;1567;-86
2022/01/11 10:52:46;130280.00;0.43;225.81;0.00;0.00;0.62;;;;;6.50;1.00;;;;;;2240550;62;1913;-86
2022/01/11 13:19:57;;;;;;;;;;;;;;;;;;;;;
2022/01/11 13:54:30;258333.00;0.86;446.28;20082.00;0.07;35.41;;;;;6.40;1.00;;;;;;2253608;61;1003;-83
2022/01/11 13:57:59;108861.00;0.36;188.86;0.00;0.00;0.62;;;;;6.40;1.00;;;;;;2252683;61;1069;-82
2022/01/11 14:14:39;18095.00;0.06;31.97;0.00;0.00;0.62;;;;;7.10;1.00;;;;;;2206012;63;1118;-85
2022/01/11 14:36:31;654460.00;2.18;1128.35;0.00;0.00;0.62;;;;;6.00;1.00;;;;;;2268676;61;1195;-84
2022/01/11 14:39:23;209916.00;0.70;362.99;0.00;0.00;0.62;;;;;5.70;1.00;;;;;;2250448;61;1417;-84
2022/01/11 14:42:35;249033.00;0.83;430.29;0.00;0.00;0.62;;;;;5.80;1.00;;;;;;2237877;62;1170;-85
2022/01/11 15:34:40;;;;;;;;;;;;;;;;;;;;;
2022/01/11 16:31:53;33950.00;0.11;59.42;0.00;0.00;0.62;;;;;6.90;1.00;;;;;;2251987;61;1981;-85
2022/01/11 17:17:44;;;;;;;;;;;;;;;;;;;;;
2022/01/11 17:27:37;;;;;;;;;;;;;;;;;;;;;
2022/01/11 17:31:15;;;;;;;;;;;;;;;;;;;;;
2022/01/11 19:38:13;495567.00;1.65;854.19;0.00;0.00;0.62;;;;;7.90;1.00;;;;;;2271641;61;1218;-86
